createdAt,value
2018-03-30T00:05:52.017Z,3.1
2018-03-30T00:16:06.595Z,3
2018-03-30T00:26:22.137Z,3.2
2018-03-30T00:36:37.361Z,3.2
2018-03-30T00:46:52.641Z,3
2018-03-30T00:57:07.750Z,2.9
2018-03-30T01:07:21.745Z,2.9
2018-03-30T01:17:35.823Z,3
2018-03-30T01:27:51.262Z,3
2018-03-30T01:38:05.376Z,3
2018-03-30T01:48:20.492Z,3
2018-03-30T01:58:35.990Z,3.1
2018-03-30T02:08:51.106Z,3.1
2018-03-30T02:19:05.333Z,3.2
2018-03-30T02:29:20.829Z,3.2
2018-03-30T02:39:34.945Z,3.2
2018-03-30T02:49:50.157Z,3.4
2018-03-30T03:00:05.362Z,3.3
2018-03-30T03:10:20.358Z,3.3
2018-03-30T03:20:34.099Z,3.3
2018-03-30T03:30:49.229Z,3.4
2018-03-30T03:41:02.914Z,3.3
2018-03-30T03:51:18.171Z,3.5
2018-03-30T04:01:33.545Z,3.5
2018-03-30T04:11:49.205Z,3.6
2018-03-30T04:22:04.588Z,3.6
2018-03-30T04:32:19.663Z,3.6
2018-03-30T04:42:34.249Z,3.7
2018-03-30T04:52:48.037Z,3.7
2018-03-30T05:03:03.360Z,3.8
2018-03-30T05:13:18.139Z,3.8
2018-03-30T05:23:32.311Z,3.9
2018-03-30T05:33:47.789Z,3.9
2018-03-30T05:44:02.839Z,3.9
2018-03-30T05:54:16.707Z,3.9
2018-03-30T06:04:30.627Z,3.8
2018-03-30T06:14:44.525Z,4
2018-03-30T06:24:58.912Z,4.6
2018-03-30T06:35:13.789Z,4.8
2018-03-30T06:45:29.246Z,5.2
2018-03-30T06:55:44.557Z,5.2
2018-03-30T07:06:00.038Z,5.4
2018-03-30T07:16:15.147Z,5.7
2018-03-30T07:26:30.610Z,5.9
2018-03-30T07:36:44.651Z,6.6
2018-03-30T07:47:00.009Z,8.4
2018-03-30T07:57:14.785Z,8.7
2018-03-30T08:07:29.263Z,7.9
2018-03-30T08:17:44.653Z,7.8
2018-03-30T08:27:58.847Z,7.8
2018-03-30T08:38:13.629Z,8.1
2018-03-30T08:48:28.820Z,8.5
2018-03-30T08:58:44.069Z,8.9
2018-03-30T09:08:58.848Z,9
2018-03-30T09:19:14.001Z,9.4
2018-03-30T09:29:29.588Z,10.7
2018-03-30T09:39:43.661Z,10.9
2018-03-30T09:49:59.200Z,12
2018-03-30T10:00:13.584Z,12.8
2018-03-30T10:10:28.661Z,13.3
2018-03-30T10:20:43.990Z,13.2
2018-03-30T10:30:58.937Z,14.6
2018-03-30T10:41:13.551Z,14.8
2018-03-30T10:51:28.878Z,14.2
2018-03-30T11:01:43.168Z,14.1
2018-03-30T11:11:58.202Z,14
2018-03-30T11:22:12.222Z,13.9
2018-03-30T11:32:26.009Z,14.7
2018-03-30T11:42:41.565Z,14.7
2018-03-30T11:52:56.827Z,15.1
2018-03-30T12:03:12.346Z,15.3
2018-03-30T12:13:27.073Z,15.2
2018-03-30T12:23:42.739Z,15.3
2018-03-30T12:33:58.494Z,15.2
2018-03-30T12:44:12.706Z,14.9
2018-03-30T12:54:27.876Z,14.4
2018-03-30T13:04:41.970Z,14
2018-03-30T13:14:57.081Z,13.8
2018-03-30T13:25:11.943Z,14.5
2018-03-30T13:35:27.563Z,14.7
2018-03-30T13:45:42.785Z,14.4
2018-03-30T13:55:57.905Z,13.8
2018-03-30T14:06:13.504Z,14.3
2018-03-30T14:16:27.884Z,14.6
2018-03-30T14:26:41.840Z,14
2018-03-30T14:36:57.090Z,13.9
2018-03-30T14:47:11.998Z,13.7
2018-03-30T14:57:26.918Z,13.8
2018-03-30T15:07:41.518Z,13.6
2018-03-30T15:17:57.106Z,13.9
2018-03-30T15:28:11.198Z,13.5
2018-03-30T15:38:26.783Z,13.4
2018-03-30T15:48:42.335Z,13.3
2018-03-30T15:58:56.556Z,13.2
2018-03-30T16:09:11.304Z,13.2
2018-03-30T16:19:26.954Z,13.1
2018-03-30T16:29:42.621Z,13
2018-03-30T16:39:58.126Z,12.9
2018-03-30T16:50:13.152Z,12.7
2018-03-30T17:00:27.243Z,12.7
2018-03-30T17:10:41.656Z,12.4
2018-03-30T17:20:56.581Z,12.3
2018-03-30T17:31:11.856Z,12.2
2018-03-30T17:41:27.401Z,12.2
2018-03-30T17:51:42.710Z,11.9
2018-03-30T18:01:58.255Z,11.7
2018-03-30T18:12:13.261Z,11.6
2018-03-30T18:22:27.759Z,11.4
2018-03-30T18:32:43.487Z,11.2
2018-03-30T18:42:57.868Z,11
2018-03-30T18:53:12.906Z,11
2018-03-30T19:03:27.555Z,10.9
2018-03-30T19:13:42.735Z,10.8
2018-03-30T19:23:57.065Z,11
2018-03-30T19:34:11.883Z,11
2018-03-30T19:44:26.283Z,10.9
2018-03-30T19:54:41.561Z,11
2018-03-30T20:04:55.734Z,10.5
2018-03-30T20:15:11.154Z,10.1
2018-03-30T20:25:25.364Z,10.1
2018-03-30T20:35:40.574Z,9.9
2018-03-30T20:45:55.160Z,9.4
2018-03-30T20:56:10.501Z,9.3
2018-03-30T21:06:25.379Z,9.1
2018-03-30T21:16:40.036Z,8.9
2018-03-30T21:26:54.914Z,8.5
2018-03-30T21:37:09.058Z,8.4
2018-03-30T21:47:24.664Z,8
2018-03-30T21:57:38.540Z,7.9
2018-03-30T22:07:52.595Z,7.8
2018-03-30T22:18:07.790Z,7.7
2018-03-30T22:28:23.025Z,7.7
2018-03-30T22:38:37.535Z,7.6
2018-03-30T22:48:52.191Z,7.5
2018-03-30T22:59:06.265Z,7.5
2018-03-30T23:09:20.938Z,7.6
2018-03-30T23:19:34.693Z,7.6
2018-03-30T23:29:49.393Z,7.6
2018-03-30T23:40:05.016Z,7.6
2018-03-30T23:50:18.739Z,7.6
